sensor_id;sensor_type;location;lat;lon;timestamp;pressure;altitude;pressure_sealevel;temperature;humidity
49801;BME280;35698;50.232;30.540;2023-03-08T00:01:11;99358.55;;;2.12;100.00
49801;BME280;35698;50.232;30.540;2023-03-08T00:02:15;99359.80;;;2.02;100.00
49801;BME280;35698;50.232;30.540;2023-03-08T00:03:26;99362.91;;;2.11;100.00
49801;BME280;35698;50.232;30.540;2023-03-08T00:04:30;99362.45;;;2.00;100.00
49801;BME280;35698;50.232;30.540;2023-03-08T00:05:36;99359.91;;;1.98;100.00
49801;BME280;35698;50.232;30.540;2023-03-08T00:06:47;99354.13;;;2.14;100.00
49801;BME280;35698;50.232;30.540;2023-03-08T00:07:52;99346.66;;;2.05;100.00
49801;BME280;35698;50.232;30.540;2023-03-08T00:09:00;99341.39;;;2.06;100.00
49801;BME280;35698;50.232;30.540;2023-03-08T00:10:12;99332.16;;;2.21;100.00
49801;BME280;35698;50.232;30.540;2023-03-08T00:11:15;99332.50;;;2.12;100.00
49801;BME280;35698;50.232;30.540;2023-03-08T00:12:19;99328.93;;;2.14;100.00
49801;BME280;35698;50.232;30.540;2023-03-08T00:13:30;99324.84;;;2.30;100.00
49801;BME280;35698;50.232;30.540;2023-03-08T00:14:34;99334.70;;;2.22;100.00
49801;BME280;35698;50.232;30.540;2023-03-08T00:15:38;99332.95;;;2.23;100.00
49801;BME280;35698;50.232;30.540;2023-03-08T00:16:49;99332.37;;;2.38;100.00
49801;BME280;35698;50.232;30.540;2023-03-08T00:17:53;99326.54;;;2.32;100.00
49801;BME280;35698;50.232;30.540;2023-03-08T00:19:04;99329.34;;;2.49;100.00
49801;BME280;35698;50.232;30.540;2023-03-08T00:20:09;99330.37;;;2.45;100.00
49801;BME280;35698;50.232;30.540;2023-03-08T00:21:31;99343.23;;;2.49;100.00
49801;BME280;35698;50.232;30.540;2023-03-08T00:22:42;99329.45;;;2.68;100.00
49801;BME280;35698;50.232;30.540;2023-03-08T00:23:46;99327.23;;;2.58;100.00
49801;BME280;35698;50.232;30.540;2023-03-08T00:25:08;99329.69;;;2.61;100.00
49801;BME280;35698;50.232;30.540;2023-03-08T00:26:22;99327.14;;;2.82;100.00
49801;BME280;35698;50.232;30.540;2023-03-08T00:27:26;99335.09;;;2.79;100.00
49801;BME280;35698;50.232;30.540;2023-03-08T00:28:47;99334.91;;;2.83;100.00
49801;BME280;35698;50.232;30.540;2023-03-08T00:29:58;99324.70;;;2.99;100.00
49801;BME280;35698;50.232;30.540;2023-03-08T00:31:04;99328.41;;;2.93;100.00
49801;BME280;35698;50.232;30.540;2023-03-08T00:32:26;99321.24;;;2.99;100.00
49801;BME280;35698;50.232;30.540;2023-03-08T00:33:38;99317.81;;;3.18;100.00
49801;BME280;35698;50.232;30.540;2023-03-08T00:34:42;99318.85;;;3.14;100.00
49801;BME280;35698;50.232;30.540;2023-03-08T00:36:06;99310.77;;;3.20;100.00
49801;BME280;35698;50.232;30.540;2023-03-08T00:37:11;99311.30;;;3.28;100.00
49801;BME280;35698;50.232;30.540;2023-03-08T00:38:23;99310.41;;;3.48;100.00
49801;BME280;35698;50.232;30.540;2023-03-08T00:39:26;99305.48;;;3.42;100.00
49801;BME280;35698;50.232;30.540;2023-03-08T00:40:48;99305.19;;;3.48;100.00
49801;BME280;35698;50.232;30.540;2023-03-08T00:41:59;99303.55;;;3.66;100.00
49801;BME280;35698;50.232;30.540;2023-03-08T00:43:02;99301.14;;;3.61;100.00
49801;BME280;35698;50.232;30.540;2023-03-08T00:44:24;99301.72;;;3.68;100.00
49801;BME280;35698;50.232;30.540;2023-03-08T00:45:28;99301.45;;;3.74;100.00
49801;BME280;35698;50.232;30.540;2023-03-08T00:46:39;99288.62;;;3.88;100.00
49801;BME280;35698;50.232;30.540;2023-03-08T00:47:43;99288.96;;;3.81;100.00
49801;BME280;35698;50.232;30.540;2023-03-08T00:49:06;99286.51;;;3.97;100.00
49801;BME280;35698;50.232;30.540;2023-03-08T00:50:10;99290.31;;;3.89;100.00
49801;BME280;35698;50.232;30.540;2023-03-08T00:51:15;99298.80;;;3.94;100.00
49801;BME280;35698;50.232;30.540;2023-03-08T00:52:26;99308.63;;;4.08;100.00
49801;BME280;35698;50.232;30.540;2023-03-08T00:53:29;99306.36;;;4.01;100.00
49801;BME280;35698;50.232;30.540;2023-03-08T00:54:33;99302.76;;;4.03;100.00
49801;BME280;35698;50.232;30.540;2023-03-08T00:55:37;99295.62;;;4.07;100.00
49801;BME280;35698;50.232;30.540;2023-03-08T00:56:48;99287.86;;;4.24;100.00
49801;BME280;35698;50.232;30.540;2023-03-08T00:57:51;99288.28;;;4.15;100.00
49801;BME280;35698;50.232;30.540;2023-03-08T00:58:55;99293.51;;;4.15;100.00
49801;BME280;35698;50.232;30.540;2023-03-08T00:59:58;99288.00;;;4.21;100.00
49801;BME280;35698;50.232;30.540;2023-03-08T01:04:24;99287.72;;;4.27;100.00
49801;BME280;35698;50.232;30.540;2023-03-08T01:05:39;99273.33;;;4.36;100.00
49801;BME280;35698;50.232;30.540;2023-03-08T01:07:01;99272.03;;;4.27;100.00
49801;BME280;35698;50.232;30.540;2023-03-08T01:08:24;99267.58;;;4.29;100.00
49801;BME280;35698;50.232;30.540;2023-03-08T01:09:35;99271.27;;;4.42;100.00
49801;BME280;35698;50.232;30.540;2023-03-08T01:10:59;99260.33;;;4.34;100.00
49801;BME280;35698;50.232;30.540;2023-03-08T01:12:20;99265.56;;;4.34;100.00
49801;BME280;35698;50.232;30.540;2023-03-08T01:13:33;99268.45;;;4.47;100.00
49801;BME280;35698;50.232;30.540;2023-03-08T01:14:56;99263.65;;;4.38;100.00
49801;BME280;35698;50.232;30.540;2023-03-08T01:16:24;99261.03;;;4.38;100.00
49801;BME280;35698;50.232;30.540;2023-03-08T01:17:39;99260.45;;;4.50;100.00
49801;BME280;35698;50.232;30.540;2023-03-08T01:19:00;99256.51;;;4.41;100.00
49801;BME280;35698;50.232;30.540;2023-03-08T01:20:22;99259.90;;;4.43;100.00
49801;BME280;35698;50.232;30.540;2023-03-08T01:21:34;99259.16;;;4.58;100.00
49801;BME280;35698;50.232;30.540;2023-03-08T01:22:55;99258.69;;;4.50;100.00
49801;BME280;35698;50.232;30.540;2023-03-08T01:24:17;99257.69;;;4.53;100.00
49801;BME280;35698;50.232;30.540;2023-03-08T01:25:38;99248.84;;;4.55;100.00
49801;BME280;35698;50.232;30.540;2023-03-08T01:26:49;99248.95;;;4.71;100.00
49801;BME280;35698;50.232;30.540;2023-03-08T01:28:10;99257.17;;;4.64;100.00
49801;BME280;35698;50.232;30.540;2023-03-08T01:29:32;99261.26;;;4.69;100.00
49801;BME280;35698;50.232;30.540;2023-03-08T01:30:53;99262.88;;;4.72;100.00
49801;BME280;35698;50.232;30.540;2023-03-08T01:32:05;99258.73;;;4.85;100.00
49801;BME280;35698;50.232;30.540;2023-03-08T01:33:28;99262.73;;;4.75;100.00
49801;BME280;35698;50.232;30.540;2023-03-08T01:34:49;99267.73;;;4.79;100.00
49801;BME280;35698;50.232;30.540;2023-03-08T01:36:13;99263.20;;;4.83;100.00
49801;BME280;35698;50.232;30.540;2023-03-08T01:37:36;99254.35;;;4.85;100.00
49801;BME280;35698;50.232;30.540;2023-03-08T01:38:47;99255.59;;;4.96;100.00
49801;BME280;35698;50.232;30.540;2023-03-08T01:39:51;99253.51;;;4.85;100.00
49801;BME280;35698;50.232;30.540;2023-03-08T01:41:02;99251.81;;;4.84;100.00
49801;BME280;35698;50.232;30.540;2023-03-08T01:42:23;99243.81;;;4.87;100.00
49801;BME280;35698;50.232;30.540;2023-03-08T01:43:45;99248.20;;;4.86;100.00
49801;BME280;35698;50.232;30.540;2023-03-08T01:45:00;99244.97;;;4.99;100.00
49801;BME280;35698;50.232;30.540;2023-03-08T01:47:27;99229.65;;;4.91;100.00
49801;BME280;35698;50.232;30.540;2023-03-08T01:50:26;99247.05;;;4.92;100.00
49801;BME280;35698;50.232;30.540;2023-03-08T01:51:44;99248.36;;;5.01;100.00
49801;BME280;35698;50.232;30.540;2023-03-08T01:52:50;99248.05;;;4.89;100.00
49801;BME280;35698;50.232;30.540;2023-03-08T01:54:06;99249.98;;;5.03;100.00
49801;BME280;35698;50.232;30.540;2023-03-08T01:55:11;99242.73;;;4.91;100.00
49801;BME280;35698;50.232;30.540;2023-03-08T01:56:17;99247.81;;;4.94;100.00
49801;BME280;35698;50.232;30.540;2023-03-08T01:57:32;99247.13;;;5.08;100.00
49801;BME280;35698;50.232;30.540;2023-03-08T01:58:36;99246.73;;;4.98;100.00
49801;BME280;35698;50.232;30.540;2023-03-08T01:59:41;99243.27;;;4.98;100.00
49801;BME280;35698;50.232;30.540;2023-03-08T02:20:30;99237.20;;;4.97;100.00
49801;BME280;35698;50.232;30.540;2023-03-08T02:21:42;99235.81;;;4.90;100.00
49801;BME280;35698;50.232;30.540;2023-03-08T02:22:46;99232.80;;;4.80;100.00
49801;BME280;35698;50.232;30.540;2023-03-08T02:23:49;99225.72;;;4.82;100.00
49801;BME280;35698;50.232;30.540;2023-03-08T02:24:53;99228.27;;;4.84;100.00
49801;BME280;35698;50.232;30.540;2023-03-08T02:27:15;99218.56;;;5.03;100.00
49801;BME280;35698;50.232;30.540;2023-03-08T02:28:20;99226.03;;;4.93;100.00
49801;BME280;35698;50.232;30.540;2023-03-08T02:29:32;99218.17;;;5.11;100.00
49801;BME280;35698;50.232;30.540;2023-03-08T02:30:36;99216.87;;;5.02;100.00
49801;BME280;35698;50.232;30.540;2023-03-08T02:31:48;99220.48;;;5.17;100.00
49801;BME280;35698;50.232;30.540;2023-03-08T02:32:51;99223.64;;;5.06;100.00
49801;BME280;35698;50.232;30.540;2023-03-08T02:34:02;99218.70;;;5.17;100.00
49801;BME280;35698;50.232;30.540;2023-03-08T02:35:06;99228.95;;;5.05;100.00
49801;BME280;35698;50.232;30.540;2023-03-08T02:36:10;99231.80;;;5.00;100.00
49801;BME280;35698;50.232;30.540;2023-03-08T02:37:21;99227.64;;;5.13;100.00
49801;BME280;35698;50.232;30.540;2023-03-08T02:38:25;99227.27;;;5.04;100.00
49801;BME280;35698;50.232;30.540;2023-03-08T02:39:36;99213.78;;;5.11;100.00
49801;BME280;35698;50.232;30.540;2023-03-08T02:40:40;99219.56;;;5.01;100.00
49801;BME280;35698;50.232;30.540;2023-03-08T02:41:51;99213.63;;;5.14;100.00
49801;BME280;35698;50.232;30.540;2023-03-08T02:42:54;99221.03;;;5.06;100.00
49801;BME280;35698;50.232;30.540;2023-03-08T02:44:05;99216.17;;;5.16;100.00
49801;BME280;35698;50.232;30.540;2023-03-08T02:45:09;99222.64;;;5.09;100.00
49801;BME280;35698;50.232;30.540;2023-03-08T02:46:13;99215.56;;;5.11;100.00
49801;BME280;35698;50.232;30.540;2023-03-08T02:47:27;99216.59;;;5.24;100.00
49801;BME280;35698;50.232;30.540;2023-03-08T02:48:31;99216.41;;;5.11;100.00
49801;BME280;35698;50.232;30.540;2023-03-08T02:49:42;99223.44;;;5.26;100.00
49801;BME280;35698;50.232;30.540;2023-03-08T02:50:46;99213.55;;;5.16;100.00
49801;BME280;35698;50.232;30.540;2023-03-08T02:52:00;99222.67;;;5.24;100.00
49801;BME280;35698;50.232;30.540;2023-03-08T02:53:04;99223.17;;;5.15;100.00
49801;BME280;35698;50.232;30.540;2023-03-08T02:54:08;99228.26;;;5.18;100.00
49801;BME280;35698;50.232;30.540;2023-03-08T02:55:29;99231.53;;;5.22;100.00
49801;BME280;35698;50.232;30.540;2023-03-08T02:56:40;99228.12;;;5.37;100.00
49801;BME280;35698;50.232;30.540;2023-03-08T02:57:44;99230.38;;;5.27;100.00
49801;BME280;35698;50.232;30.540;2023-03-08T02:58:55;99226.19;;;5.41;100.00
49801;BME280;35698;50.232;30.540;2023-03-08T02:59:58;99229.28;;;5.32;100.00
49801;BME280;35698;50.232;30.540;2023-03-08T03:01:10;99231.06;;;5.31;100.00
49801;BME280;35698;50.232;30.540;2023-03-08T03:02:32;99222.36;;;5.31;100.00
49801;BME280;35698;50.232;30.540;2023-03-08T03:03:43;99220.80;;;5.44;100.00
49801;BME280;35698;50.232;30.540;2023-03-08T03:04:47;99222.20;;;5.34;100.00
49801;BME280;35698;50.232;30.540;2023-03-08T03:05:58;99226.11;;;5.42;100.00
49801;BME280;35698;50.232;30.540;2023-03-08T03:07:01;99227.59;;;5.31;100.00
49801;BME280;35698;50.232;30.540;2023-03-08T03:08:22;99231.14;;;5.30;100.00
49801;BME280;35698;50.232;30.540;2023-03-08T03:09:44;99229.37;;;5.30;100.00
49801;BME280;35698;50.232;30.540;2023-03-08T03:10:55;99232.20;;;5.43;100.00
49801;BME280;35698;50.232;30.540;2023-03-08T03:11:58;99224.05;;;5.32;100.00
49801;BME280;35698;50.232;30.540;2023-03-08T03:13:09;99223.49;;;5.42;100.00
49801;BME280;35698;50.232;30.540;2023-03-08T03:14:13;99229.45;;;5.28;100.00
49801;BME280;35698;50.232;30.540;2023-03-08T03:15:16;99233.67;;;5.31;100.00
49801;BME280;35698;50.232;30.540;2023-03-08T03:16:38;99229.13;;;5.35;100.00
49801;BME280;35698;50.232;30.540;2023-03-08T03:17:49;99224.94;;;5.48;100.00
49801;BME280;35698;50.232;30.540;2023-03-08T03:18:53;99224.73;;;5.35;100.00
49801;BME280;35698;50.232;30.540;2023-03-08T03:20:06;99219.02;;;5.44;100.00
49801;BME280;35698;50.232;30.540;2023-03-08T03:21:12;99220.50;;;5.33;100.00
49801;BME280;35698;50.232;30.540;2023-03-08T03:22:18;99225.66;;;5.34;100.00
49801;BME280;35698;50.232;30.540;2023-03-08T03:23:40;99221.27;;;5.35;100.00
49801;BME280;35698;50.232;30.540;2023-03-08T03:25:02;99220.42;;;5.34;100.00
49801;BME280;35698;50.232;30.540;2023-03-08T03:26:16;99212.01;;;5.45;100.00
49801;BME280;35698;50.232;30.540;2023-03-08T03:27:21;99222.20;;;5.34;100.00
49801;BME280;35698;50.232;30.540;2023-03-08T03:28:32;99212.01;;;5.45;100.00
49801;BME280;35698;50.232;30.540;2023-03-08T03:29:37;99210.72;;;5.36;100.00
49801;BME280;35698;50.232;30.540;2023-03-08T03:30:40;99217.64;;;5.37;100.00
49801;BME280;35698;50.232;30.540;2023-03-08T03:32:02;99210.64;;;5.38;100.00
49801;BME280;35698;50.232;30.540;2023-03-08T03:33:24;99211.33;;;5.41;100.00
49801;BME280;35698;50.232;30.540;2023-03-08T03:34:27;99213.02;;;5.42;100.00
49801;BME280;35698;50.232;30.540;2023-03-08T03:35:38;99205.44;;;5.53;100.00
49801;BME280;35698;50.232;30.540;2023-03-08T03:36:42;99210.31;;;5.44;100.00
49801;BME280;35698;50.232;30.540;2023-03-08T03:37:53;99209.67;;;5.56;100.00
49801;BME280;35698;50.232;30.540;2023-03-08T03:38:57;99208.63;;;5.43;100.00
49801;BME280;35698;50.232;30.540;2023-03-08T03:40:10;99208.06;;;5.53;100.00
49801;BME280;35698;50.232;30.540;2023-03-08T03:41:17;99204.31;;;5.42;100.00
49801;BME280;35698;50.232;30.540;2023-03-08T03:42:24;99206.16;;;5.40;100.00
49801;BME280;35698;50.232;30.540;2023-03-08T03:43:36;99210.16;;;5.47;100.00
49801;BME280;35698;50.232;30.540;2023-03-08T03:44:39;99202.49;;;5.26;100.00
49801;BME280;35698;50.232;30.540;2023-03-08T03:45:58;99200.00;;;5.41;100.00
49801;BME280;35698;50.232;30.540;2023-03-08T03:47:01;99185.86;;;5.27;100.00
49801;BME280;35698;50.232;30.540;2023-03-08T03:48:23;99196.33;;;5.27;100.00
49801;BME280;35698;50.232;30.540;2023-03-08T03:49:34;99194.84;;;5.39;100.00
49801;BME280;35698;50.232;30.540;2023-03-08T03:50:38;99191.41;;;5.21;100.00
49801;BME280;35698;50.232;30.540;2023-03-08T03:51:59;99188.72;;;5.23;100.00
49801;BME280;35698;50.232;30.540;2023-03-08T03:53:10;99182.23;;;5.30;100.00
49801;BME280;35698;50.232;30.540;2023-03-08T03:54:14;99182.82;;;5.19;100.00
49801;BME280;35698;50.232;30.540;2023-03-08T03:55:35;99177.75;;;5.16;100.00
49801;BME280;35698;50.232;30.540;2023-03-08T03:56:47;99175.38;;;5.27;100.00
49801;BME280;35698;50.232;30.540;2023-03-08T03:57:50;99169.89;;;5.16;100.00
49801;BME280;35698;50.232;30.540;2023-03-08T03:59:12;99175.89;;;5.18;100.00
49801;BME280;35698;50.232;30.540;2023-03-08T04:00:23;99170.06;;;5.29;100.00
49801;BME280;35698;50.232;30.540;2023-03-08T04:01:31;99171.39;;;5.20;100.00
49801;BME280;35698;50.232;30.540;2023-03-08T04:02:52;99171.39;;;5.20;100.00
49801;BME280;35698;50.232;30.540;2023-03-08T04:04:03;99171.67;;;5.32;100.00
49801;BME280;35698;50.232;30.540;2023-03-08T04:05:07;99173.93;;;5.22;100.00
49801;BME280;35698;50.232;30.540;2023-03-08T04:06:31;99179.16;;;5.22;100.00
49801;BME280;35698;50.232;30.540;2023-03-08T04:07:45;99183.23;;;5.27;100.00
49801;BME280;35698;50.232;30.540;2023-03-08T04:08:51;99175.12;;;5.16;100.00
49801;BME280;35698;50.232;30.540;2023-03-08T04:10:13;99170.73;;;5.17;100.00
49801;BME280;35698;50.232;30.540;2023-03-08T04:11:19;99165.34;;;5.20;100.00
49801;BME280;35698;50.232;30.540;2023-03-08T04:12:31;99155.20;;;5.30;100.00
49801;BME280;35698;50.232;30.540;2023-03-08T04:13:35;99160.11;;;5.20;100.00
49801;BME280;35698;50.232;30.540;2023-03-08T04:14:56;99161.77;;;5.21;100.00
49801;BME280;35698;50.232;30.540;2023-03-08T04:16:06;99159.27;;;5.19;100.00
49801;BME280;35698;50.232;30.540;2023-03-08T04:17:12;99153.42;;;5.30;100.00
49801;BME280;35698;50.232;30.540;2023-03-08T04:18:16;99157.48;;;5.20;100.00
49801;BME280;35698;50.232;30.540;2023-03-08T04:19:27;99139.81;;;5.23;100.00
49801;BME280;35698;50.232;30.540;2023-03-08T04:20:31;99145.64;;;5.13;100.00
49801;BME280;35698;50.232;30.540;2023-03-08T04:21:42;99143.96;;;5.27;100.00
49801;BME280;35698;50.232;30.540;2023-03-08T04:22:45;99147.25;;;5.15;100.00
49801;BME280;35698;50.232;30.540;2023-03-08T04:23:49;99143.88;;;5.13;100.00
49801;BME280;35698;50.232;30.540;2023-03-08T04:24:53;99145.72;;;5.11;100.00
49801;BME280;35698;50.232;30.540;2023-03-08T04:26:05;99145.98;;;5.22;100.00
49801;BME280;35698;50.232;30.540;2023-03-08T04:27:09;99147.50;;;5.11;100.00
49801;BME280;35698;50.232;30.540;2023-03-08T04:28:20;99151.22;;;5.22;100.00
49801;BME280;35698;50.232;30.540;2023-03-08T04:29:23;99144.95;;;5.09;100.00
49801;BME280;35698;50.232;30.540;2023-03-08T04:30:45;99152.89;;;5.08;100.00
49801;BME280;35698;50.232;30.540;2023-03-08T04:31:56;99149.11;;;5.13;100.00
49801;BME280;35698;50.232;30.540;2023-03-08T04:33:00;99152.36;;;5.01;100.00
49801;BME280;35698;50.232;30.540;2023-03-08T04:34:21;99147.28;;;4.98;100.00
49801;BME280;35698;50.232;30.540;2023-03-08T04:35:24;99150.98;;;4.94;100.00
49801;BME280;35698;50.232;30.540;2023-03-08T04:36:28;99144.98;;;4.92;100.00
49801;BME280;35698;50.232;30.540;2023-03-08T04:37:39;99154.29;;;4.98;100.00
49801;BME280;35698;50.232;30.540;2023-03-08T04:38:44;99154.07;;;4.85;100.00
49801;BME280;35698;50.232;30.540;2023-03-08T04:40:07;99152.53;;;4.81;100.00
49801;BME280;35698;50.232;30.540;2023-03-08T04:41:11;99149.15;;;4.79;100.00
49801;BME280;35698;50.232;30.540;2023-03-08T04:42:22;99150.38;;;4.89;100.00
49801;BME280;35698;50.232;30.540;2023-03-08T04:43:25;99154.54;;;4.76;100.00
49801;BME280;35698;50.232;30.540;2023-03-08T04:44:46;99150.30;;;4.73;100.00
49801;BME280;35698;50.232;30.540;2023-03-08T04:45:58;99160.39;;;4.81;100.00
49801;BME280;35698;50.232;30.540;2023-03-08T04:47:02;99157.70;;;4.65;100.00
49801;BME280;35698;50.232;30.540;2023-03-08T04:48:23;99163.70;;;4.67;100.00
49801;BME280;35698;50.232;30.540;2023-03-08T04:49:34;99164.31;;;4.72;100.00
49801;BME280;35698;50.232;30.540;2023-03-08T04:50:38;99159.47;;;4.65;100.00
49801;BME280;35698;50.232;30.540;2023-03-08T04:51:59;99160.31;;;4.65;100.00
49801;BME280;35698;50.232;30.540;2023-03-08T04:53:10;99158.92;;;4.75;100.00
49801;BME280;35698;50.232;30.540;2023-03-08T04:54:14;99156.84;;;4.65;100.00
49801;BME280;35698;50.232;30.540;2023-03-08T04:55:35;99158.55;;;4.66;100.00
49801;BME280;35698;50.232;30.540;2023-03-08T04:56:47;99159.46;;;4.82;100.00
49801;BME280;35698;50.232;30.540;2023-03-08T04:57:50;99161.77;;;4.71;100.00
49801;BME280;35698;50.232;30.540;2023-03-08T04:58:53;99165.39;;;4.68;100.00
49801;BME280;35698;50.232;30.540;2023-03-08T04:59:57;99157.70;;;4.65;100.00
49801;BME280;35698;50.232;30.540;2023-03-08T05:01:14;99159.16;;;4.71;100.00
49801;BME280;35698;50.232;30.540;2023-03-08T05:02:18;99160.39;;;4.64;100.00
49801;BME280;35698;50.232;30.540;2023-03-08T05:03:29;99156.23;;;4.77;100.00
49801;BME280;35698;50.232;30.540;2023-03-08T05:04:32;99155.92;;;4.66;100.00
49801;BME280;35698;50.232;30.540;2023-03-08T05:05:54;99154.92;;;4.68;100.00
49801;BME280;35698;50.232;30.540;2023-03-08T05:07:05;99144.53;;;4.84;100.00
49801;BME280;35698;50.232;30.540;2023-03-08T05:08:09;99150.16;;;4.76;100.00
49801;BME280;35698;50.232;30.540;2023-03-08T05:09:31;99144.92;;;4.76;100.00
49801;BME280;35698;50.232;30.540;2023-03-08T05:10:34;99145.53;;;4.81;100.00
49801;BME280;35698;50.232;30.540;2023-03-08T05:11:45;99147.28;;;4.98;100.00
49801;BME280;35698;50.232;30.540;2023-03-08T05:12:49;99142.45;;;4.90;100.00
49801;BME280;35698;50.232;30.540;2023-03-08T05:14:10;99133.59;;;4.93;100.00
49801;BME280;35698;50.232;30.540;2023-03-08T05:15:14;99142.20;;;4.95;100.00
49801;BME280;35698;50.232;30.540;2023-03-08T05:16:35;99138.67;;;4.96;100.00
49801;BME280;35698;50.232;30.540;2023-03-08T05:17:46;99132.87;;;5.07;100.00
49801;BME280;35698;50.232;30.540;2023-03-08T05:18:50;99137.73;;;4.97;100.00
49801;BME280;35698;50.232;30.540;2023-03-08T05:20:12;99135.89;;;4.99;100.00
49801;BME280;35698;50.232;30.540;2023-03-08T05:21:23;99130.94;;;5.10;100.00
49801;BME280;35698;50.232;30.540;2023-03-08T05:22:26;99132.19;;;5.03;100.00
49801;BME280;35698;50.232;30.540;2023-03-08T05:23:47;99133.20;;;5.01;100.00
49801;BME280;35698;50.232;30.540;2023-03-08T05:24:59;99127.92;;;5.18;100.00
49801;BME280;35698;50.232;30.540;2023-03-08T05:26:04;99121.40;;;5.09;100.00
49801;BME280;35698;50.232;30.540;2023-03-08T05:27:26;99114.31;;;5.11;100.00
49801;BME280;35698;50.232;30.540;2023-03-08T05:28:39;99116.41;;;5.20;100.00
49801;BME280;35698;50.232;30.540;2023-03-08T05:29:43;99112.45;;;5.13;100.00
49801;BME280;35698;50.232;30.540;2023-03-08T05:31:13;99109.68;;;5.16;100.00
49801;BME280;35698;50.232;30.540;2023-03-08T05:32:24;99109.84;;;5.29;100.00
49801;BME280;35698;50.232;30.540;2023-03-08T05:33:28;99113.80;;;5.20;100.00
49801;BME280;35698;50.232;30.540;2023-03-08T05:34:34;99107.83;;;5.18;100.00
49801;BME280;35698;50.232;30.540;2023-03-08T05:35:51;99111.36;;;5.33;100.00
49801;BME280;35698;50.232;30.540;2023-03-08T05:36:55;99117.17;;;5.22;100.00
49801;BME280;35698;50.232;30.540;2023-03-08T05:37:58;99121.41;;;5.25;100.00
49801;BME280;35698;50.232;30.540;2023-03-08T05:39:02;99121.23;;;5.28;100.00
49801;BME280;35698;50.232;30.540;2023-03-08T05:40:23;99124.46;;;5.33;100.00
49801;BME280;35698;50.232;30.540;2023-03-08T05:41:34;99114.77;;;5.51;100.00
49801;BME280;35698;50.232;30.540;2023-03-08T05:42:38;99122.20;;;5.43;100.00
49801;BME280;35698;50.232;30.540;2023-03-08T05:43:41;99125.41;;;5.48;100.00
49801;BME280;35698;50.232;30.540;2023-03-08T05:44:45;99117.39;;;5.51;100.00
49801;BME280;35698;50.232;30.540;2023-03-08T05:48:33;99121.61;;;5.53;100.00
49801;BME280;35698;50.232;30.540;2023-03-08T05:49:37;99124.07;;;5.56;100.00
49801;BME280;35698;50.232;30.540;2023-03-08T05:50:49;99120.85;;;5.51;100.00
49801;BME280;35698;50.232;30.540;2023-03-08T05:52:01;99122.64;;;5.67;100.00
49801;BME280;35698;50.232;30.540;2023-03-08T05:53:04;99123.98;;;5.58;100.00
49801;BME280;35698;50.232;30.540;2023-03-08T05:54:07;99115.53;;;5.53;100.00
49801;BME280;35698;50.232;30.540;2023-03-08T05:55:11;99116.05;;;5.59;100.00
49801;BME280;35698;50.232;30.540;2023-03-08T05:56:18;99110.04;;;5.57;100.00
49801;BME280;35698;50.232;30.540;2023-03-08T05:57:30;99119.84;;;5.70;100.00
49801;BME280;35698;50.232;30.540;2023-03-08T05:58:35;99113.34;;;5.61;100.00
49801;BME280;35698;50.232;30.540;2023-03-08T05:59:46;99106.24;;;5.79;100.00
49801;BME280;35698;50.232;30.540;2023-03-08T06:00:49;99103.11;;;5.72;100.00
49801;BME280;35698;50.232;30.540;2023-03-08T06:02:01;99113.45;;;5.91;100.00
49801;BME280;35698;50.232;30.540;2023-03-08T06:03:06;99103.11;;;5.88;100.00
49801;BME280;35698;50.232;30.540;2023-03-08T06:04:09;99106.27;;;5.95;100.00
49801;BME280;35698;50.232;30.540;2023-03-08T06:05:13;99103.21;;;6.02;100.00
49801;BME280;35698;50.232;30.540;2023-03-08T06:06:18;99105.54;;;6.07;100.00
49801;BME280;35698;50.232;30.540;2023-03-08T06:07:30;99109.91;;;6.22;100.00
49801;BME280;35698;50.232;30.540;2023-03-08T06:08:35;99108.39;;;6.18;100.00
49801;BME280;35698;50.232;30.540;2023-03-08T06:09:48;99107.34;;;6.36;100.00
49801;BME280;35698;50.232;30.540;2023-03-08T06:11:10;99107.69;;;6.30;100.00
49801;BME280;35698;50.232;30.540;2023-03-08T06:12:22;99111.39;;;6.42;100.00
49801;BME280;35698;50.232;30.540;2023-03-08T06:13:26;99105.65;;;6.35;100.00
49801;BME280;35698;50.232;30.540;2023-03-08T06:14:48;99100.23;;;6.38;100.00
49801;BME280;35698;50.232;30.540;2023-03-08T06:16:00;99098.48;;;6.53;100.00
49801;BME280;35698;50.232;30.540;2023-03-08T06:17:04;99101.47;;;6.47;100.00
49801;BME280;35698;50.232;30.540;2023-03-08T06:18:26;99099.11;;;6.42;100.00
49801;BME280;35698;50.232;30.540;2023-03-08T06:19:39;99090.34;;;6.57;99.20
49801;BME280;35698;50.232;30.540;2023-03-08T06:20:42;99090.22;;;6.45;99.44
49801;BME280;35698;50.232;30.540;2023-03-08T06:22:04;99094.80;;;6.41;99.41
49801;BME280;35698;50.232;30.540;2023-03-08T06:23:27;99095.07;;;6.37;100.00
49801;BME280;35698;50.232;30.540;2023-03-08T06:24:39;99087.02;;;6.40;100.00
49801;BME280;35698;50.232;30.540;2023-03-08T06:25:42;99082.80;;;6.37;100.00
49801;BME280;35698;50.232;30.540;2023-03-08T06:27:04;99074.75;;;6.40;100.00
49801;BME280;35698;50.232;30.540;2023-03-08T06:28:27;99073.15;;;6.38;100.00
49801;BME280;35698;50.232;30.540;2023-03-08T06:29:41;99078.25;;;6.55;100.00
49801;BME280;35698;50.232;30.540;2023-03-08T06:30:48;99068.97;;;6.49;100.00
49801;BME280;35698;50.232;30.540;2023-03-08T06:32:10;99076.66;;;6.52;100.00
49801;BME280;35698;50.232;30.540;2023-03-08T06:33:32;99068.03;;;6.50;100.00
49801;BME280;35698;50.232;30.540;2023-03-08T06:34:45;99071.52;;;6.65;100.00
49801;BME280;35698;50.232;30.540;2023-03-08T06:35:57;99070.08;;;6.45;99.95
49801;BME280;35698;50.232;30.540;2023-03-08T06:37:19;99079.28;;;6.52;100.00
49801;BME280;35698;50.232;30.540;2023-03-08T06:38:41;99083.11;;;6.47;100.00
49801;BME280;35698;50.232;30.540;2023-03-08T06:39:53;99085.09;;;6.57;100.00
49801;BME280;35698;50.232;30.540;2023-03-08T06:40:57;99093.78;;;6.44;100.00